Time;durP1;ratioP1;P1;durP2;ratioP2;P2;SDS_P1;SDS_P2;PMS_P1;PMS_P2;Temp;Humidity;BMP_temperature;BMP_pressure;BME280_temperature;BME280_humidity;BME280_pressure;Samples;Min_cycle;Max_cycle;Signal;HPM_P1;HPM_P2
2022/12/12 00:00:13;;;;;;;28.08;3.83;;;20.40;59.90;;;;;;5084146;28;20090;-63
2022/12/12 00:02:41;;;;;;;19.40;4.05;;;20.30;59.30;;;;;;5080676;28;20536;-63
2022/12/12 00:05:08;;;;;;;20.33;3.65;;;20.20;59.00;;;;;;5081288;28;20484;-64
2022/12/12 00:07:34;;;;;;;14.82;3.42;;;20.20;58.60;;;;;;5080608;28;20087;-63
2022/12/12 00:10:01;;;;;;;20.48;4.28;;;20.20;58.10;;;;;;5079296;28;20151;-62
2022/12/12 00:12:27;;;;;;;18.42;3.45;;;20.20;58.00;;;;;;5076547;28;20435;-64
2022/12/12 00:14:54;;;;;;;34.88;17.63;;;20.10;57.90;;;;;;5084214;28;20233;-61
2022/12/12 00:17:20;;;;;;;36.08;17.85;;;20.10;57.50;;;;;;5077890;28;20085;-62
2022/12/12 00:19:46;;;;;;;39.05;17.10;;;20.10;57.30;;;;;;5079129;28;20155;-62
2022/12/12 00:22:13;;;;;;;44.28;20.15;;;20.10;57.50;;;;;;5083730;28;20076;-63
2022/12/12 00:24:39;;;;;;;35.03;17.98;;;20.00;57.60;;;;;;5079624;28;20127;-63
2022/12/12 00:27:05;;;;;;;35.38;16.00;;;19.90;57.90;;;;;;5079837;28;20432;-62
2022/12/12 00:29:32;;;;;;;40.92;20.65;;;19.90;58.10;;;;;;5076547;28;20515;-63
2022/12/12 00:31:58;;;;;;;12.60;3.55;;;20.00;58.60;;;;;;5081499;28;20162;-62
2022/12/12 00:34:25;;;;;;;19.77;5.97;;;19.90;58.40;;;;;;5083439;28;20438;-62
2022/12/12 00:36:51;;;;;;;17.10;5.47;;;19.80;60.60;;;;;;5079895;28;20081;-62
2022/12/12 00:39:18;;;;;;;21.08;6.20;;;19.80;61.80;;;;;;5078812;28;20075;-62
2022/12/12 00:41:45;;;;;;;16.05;5.80;;;19.70;62.50;;;;;;5083298;28;20538;-62
2022/12/12 00:44:12;;;;;;;12.65;3.97;;;19.60;63.40;;;;;;5085664;28;20521;-63
2022/12/12 00:46:39;;;;;;;23.83;4.28;;;19.50;63.10;;;;;;5089303;28;20075;-62
2022/12/12 00:49:05;;;;;;;6.05;2.92;;;19.40;65.60;;;;;;5081405;28;20154;-61
2022/12/12 00:51:32;;;;;;;5.50;2.20;;;19.30;66.40;;;;;;5074771;28;20479;-62
2022/12/12 00:53:59;;;;;;;10.95;2.25;;;19.30;64.20;;;;;;5081088;28;20072;-61
2022/12/12 00:56:26;;;;;;;12.52;2.80;;;19.20;65.00;;;;;;5083807;28;20068;-64
2022/12/12 00:58:53;;;;;;;13.40;3.58;;;19.10;66.30;;;;;;5087710;28;20085;-62
2022/12/12 01:01:25;;;;;;;14.00;3.25;;;19.00;68.20;;;;;;5083611;28;20087;-62
2022/12/12 01:03:52;;;;;;;17.30;3.53;;;18.80;71.40;;;;;;5085734;28;20075;-63
2022/12/12 01:06:19;;;;;;;10.30;2.80;;;18.80;74.50;;;;;;5089429;28;20089;-65
2022/12/12 01:08:46;;;;;;;14.30;5.18;;;18.70;76.40;;;;;;5087408;28;20070;-65
2022/12/12 01:11:13;;;;;;;14.95;4.15;;;18.60;80.30;;;;;;5084869;28;20073;-63
2022/12/12 01:13:41;;;;;;;16.65;4.20;;;18.50;84.40;;;;;;5086470;28;20105;-63
2022/12/12 01:16:09;;;;;;;15.40;4.15;;;18.40;88.70;;;;;;5085546;28;20075;-65
2022/12/12 01:18:36;;;;;;;11.65;3.55;;;18.30;90.70;;;;;;5084864;28;20076;-62
2022/12/12 01:21:02;;;;;;;17.80;3.67;;;18.20;90.80;;;;;;5090739;28;20084;-63
2022/12/12 01:23:29;;;;;;;11.80;2.90;;;18.00;90.50;;;;;;5083522;28;20076;-61
2022/12/12 01:26:05;;;;;;;14.23;4.60;;;17.80;90.80;;;;;;5083853;28;20119;-61
2022/12/12 01:28:32;;;;;;;19.95;6.00;;;17.70;91.00;;;;;;5083303;28;20072;-64
2022/12/12 01:30:58;;;;;;;18.50;7.22;;;17.50;91.30;;;;;;5084165;28;20129;-63
2022/12/12 01:33:25;;;;;;;18.88;6.78;;;17.40;92.00;;;;;;5088244;28;20073;-62
2022/12/12 01:35:51;;;;;;;23.15;5.93;;;17.40;92.30;;;;;;5080895;28;20445;-61
2022/12/12 01:38:18;;;;;;;16.67;6.13;;;17.40;92.70;;;;;;5088406;28;20077;-64
2022/12/12 01:40:45;;;;;;;21.52;6.25;;;17.50;93.60;;;;;;5082732;28;20116;-61
2022/12/12 01:43:13;;;;;;;13.38;5.90;;;17.50;93.70;;;;;;5080389;28;20156;-61
2022/12/12 01:45:58;;;;;;;12.15;5.13;;;17.40;93.70;;;;;;5088853;28;20155;-64
2022/12/12 01:48:30;;;;;;;18.33;4.57;;;17.40;93.80;;;;;;5083106;28;20079;-65
2022/12/12 01:51:00;;;;;;;18.00;5.05;;;17.40;93.20;;;;;;5081428;28;20077;-62
2022/12/12 01:53:28;;;;;;;13.48;5.38;;;17.30;92.60;;;;;;5078851;28;20159;-63
2022/12/12 01:55:56;;;;;;;9.75;4.28;;;17.30;92.60;;;;;;5080022;28;20534;-64
2022/12/12 01:58:23;;;;;;;13.23;3.38;;;17.40;92.70;;;;;;5080504;28;20096;-64
2022/12/12 02:00:50;;;;;;;11.27;3.30;;;17.40;93.00;;;;;;5085719;28;20110;-62
2022/12/12 02:03:16;;;;;;;11.85;2.65;;;17.40;93.40;;;;;;5080831;28;20076;-64
2022/12/12 02:05:53;;;;;;;9.68;2.08;;;17.40;94.00;;;;;;5082197;28;20130;-62
2022/12/12 02:08:22;;;;;;;7.00;2.38;;;17.40;94.40;;;;;;5083063;28;20159;-64
2022/12/12 02:10:49;;;;;;;5.85;2.20;;;17.40;94.30;;;;;;5080323;28;20497;-64
2022/12/12 02:13:19;;;;;;;5.30;1.50;;;17.20;94.60;;;;;;5083654;28;20069;-63
2022/12/12 02:16:16;;;;;;;6.80;1.88;;;17.50;93.90;;;;;;5085082;28;20088;-64
2022/12/12 02:19:25;;;;;;;2.65;1.20;;;17.50;93.40;;;;;;5081891;28;20075;-62
2022/12/12 02:22:17;;;;;;;1.58;0.95;;;17.50;92.10;;;;;;5090102;28;20076;-65
2022/12/12 02:24:46;;;;;;;15.55;1.65;;;17.40;87.20;;;;;;5066487;28;20127;-62
2022/12/12 02:27:19;;;;;;;20.05;1.55;;;17.50;87.70;;;;;;5077158;28;20414;-64
2022/12/12 02:30:22;;;;;;;20.00;2.08;;;17.20;87.60;;;;;;5081926;28;20115;-60
2022/12/12 02:33:10;;;;;;;23.73;2.00;;;17.10;88.40;;;;;;5079897;28;20114;-63
2022/12/12 02:35:52;;;;;;;18.00;1.80;;;16.90;87.10;;;;;;5082421;28;20085;-62
2022/12/12 02:38:57;;;;;;;16.83;2.00;;;16.70;87.60;;;;;;5085615;28;20084;-61
2022/12/12 02:41:34;;;;;;;24.48;1.48;;;16.40;85.90;;;;;;5079175;28;20530;-62
2022/12/12 02:44:28;;;;;;;18.23;1.90;;;16.50;86.10;;;;;;5089055;28;20072;-62
2022/12/12 02:47:03;;;;;;;16.15;4.88;;;16.30;86.10;;;;;;5085573;28;20126;-62
2022/12/12 02:49:40;;;;;;;22.83;9.20;;;16.30;85.40;;;;;;5085599;28;20536;-63
2022/12/12 02:52:09;;;;;;;28.25;11.23;;;16.30;86.70;;;;;;5083011;28;20073;-63
2022/12/12 02:54:35;;;;;;;7.55;1.10;;;16.30;86.20;;;;;;5082698;28;20582;-63
2022/12/12 02:57:03;;;;;;;5.68;1.30;;;16.20;86.70;;;;;;5083978;28;20081;-64
2022/12/12 02:59:33;;;;;;;8.93;2.00;;;16.20;88.00;;;;;;5079516;28;20508;-65
2022/12/12 03:02:11;;;;;;;12.50;2.25;;;16.10;89.20;;;;;;5081638;28;20072;-65
2022/12/12 03:07:54;;;;;;;10.25;2.63;;;15.90;90.40;;;;;;5081481;28;20080;-63
2022/12/12 03:10:35;;;;;;;11.05;2.70;;;15.80;91.20;;;;;;5083610;28;20084;-63
2022/12/12 03:13:41;;;;;;;7.35;2.58;;;15.70;91.60;;;;;;5081662;28;20099;-63
2022/12/12 03:16:13;;;;;;;13.27;3.60;;;15.60;91.80;;;;;;5085693;28;20072;-63
2022/12/12 03:18:52;;;;;;;6.55;2.20;;;15.60;92.00;;;;;;5084440;28;20153;-64
2022/12/12 03:21:45;;;;;;;14.75;2.75;;;15.50;91.60;;;;;;5081360;28;20497;-63
2022/12/12 03:24:27;;;;;;;27.58;2.13;;;15.50;90.80;;;;;;5060787;28;20100;-63
2022/12/12 03:27:15;;;;;;;33.72;2.42;;;15.60;87.50;;;;;;5081159;28;20104;-63
2022/12/12 03:29:51;;;;;;;51.42;3.47;;;15.60;98.90;;;;;;5083161;28;20158;-65
2022/12/12 03:32:30;;;;;;;56.88;3.13;;;15.60;97.20;;;;;;5082137;28;20087;-63
2022/12/12 03:35:06;;;;;;;31.80;2.80;;;15.90;96.30;;;;;;5079874;28;20070;-63
2022/12/12 03:37:43;;;;;;;51.28;3.15;;;15.70;97.70;;;;;;5079245;28;20081;-63
2022/12/12 03:40:14;;;;;;;43.20;3.03;;;15.50;99.30;;;;;;5080054;28;20123;-63
2022/12/12 03:42:56;;;;;;;31.25;2.90;;;15.30;79.40;;;;;;5082630;28;20046;-64
2022/12/12 03:45:51;;;;;;;46.63;3.83;;;15.50;80.20;;;;;;5083157;28;20081;-66
2022/12/12 03:48:29;;;;;;;34.90;2.60;;;15.40;80.10;;;;;;5076528;28;20073;-62
2022/12/12 03:51:08;;;;;;;33.53;4.38;;;15.40;79.30;;;;;;5083714;28;20072;-63
2022/12/12 03:53:56;;;;;;;28.42;2.47;;;15.40;79.10;;;;;;5083215;28;20069;-64
2022/12/12 03:56:55;;;;;;;28.52;1.73;;;15.40;78.30;;;;;;5083515;28;20064;-64
2022/12/12 03:59:28;;;;;;;27.88;1.83;;;15.40;78.40;;;;;;5083927;28;20099;-64
2022/12/12 04:02:15;;;;;;;22.17;2.10;;;15.30;93.60;;;;;;5085136;28;20088;-65
2022/12/12 04:05:06;;;;;;;19.00;1.75;;;15.20;77.60;;;;;;5082824;28;20087;-63
2022/12/12 04:07:40;;;;;;;24.15;1.70;;;15.20;78.10;;;;;;5078400;28;20163;-63
2022/12/12 04:13:12;;;;;;;17.30;1.73;;;15.30;77.90;;;;;;5080105;28;20157;-61
2022/12/12 04:16:26;;;;;;;15.80;1.65;;;15.20;77.90;;;;;;5082542;28;20105;-64
2022/12/12 04:19:01;;;;;;;15.88;1.63;;;15.20;78.00;;;;;;5054885;28;20573;-63
2022/12/12 04:24:49;;;;;;;20.45;2.40;;;15.20;76.50;;;;;;5058018;28;20202;-65
2022/12/12 04:27:49;;;;;;;41.58;3.97;;;14.90;75.90;;;;;;5059393;28;20447;-63
2022/12/12 04:30:16;;;;;;;66.30;4.13;;;15.10;71.10;;;;;;5008047;28;20105;-63
2022/12/12 04:32:55;;;;;;;50.60;4.30;;;15.10;68.70;;;;;;5008209;28;20213;-62
2022/12/12 04:35:45;;;;;;;40.42;3.33;;;15.10;68.40;;;;;;4999774;28;20082;-64
2022/12/12 04:38:23;;;;;;;40.08;3.05;;;15.10;68.10;;;;;;5006727;28;20622;-62
2022/12/12 04:40:56;;;;;;;23.80;2.63;;;15.00;68.80;;;;;;5008447;28;20125;-62
2022/12/12 04:43:32;;;;;;;31.90;2.83;;;15.00;69.20;;;;;;5000902;28;20082;-62
2022/12/12 04:46:12;;;;;;;29.52;2.25;;;15.10;69.40;;;;;;5008029;28;20539;-62
2022/12/12 04:48:45;;;;;;;14.80;1.63;;;15.10;69.10;;;;;;5006838;28;20094;-64
2022/12/12 04:51:15;;;;;;;23.73;2.17;;;15.10;68.80;;;;;;5008212;28;20087;-62
2022/12/12 04:53:47;;;;;;;12.35;2.20;;;15.20;67.70;;;;;;5007557;28;20085;-63
2022/12/12 04:56:18;;;;;;;24.48;2.25;;;15.20;66.30;;;;;;5003278;28;20479;-64
2022/12/12 04:58:45;;;;;;;26.48;2.70;;;15.20;64.60;;;;;;4991902;28;20133;-61
2022/12/12 05:01:20;;;;;;;;;;;15.20;62.70;;;;;;5001103;28;20134;-62
2022/12/12 05:03:57;;;;;;;40.42;2.20;;;15.20;62.80;;;;;;4995342;28;20315;-61
2022/12/12 05:06:38;;;;;;;29.25;2.13;;;15.20;59.30;;;;;;5034256;28;20102;-62
2022/12/12 05:09:05;;;;;;;25.90;2.80;;;15.30;58.40;;;;;;5074296;28;20084;-62
2022/12/12 05:11:33;;;;;;;16.90;1.95;;;15.30;58.30;;;;;;5076693;28;20081;-63
2022/12/12 05:14:00;;;;;;;11.75;1.60;;;15.30;58.30;;;;;;5078692;28;20081;-63
2022/12/12 05:16:32;;;;;;;;;;;15.20;58.10;;;;;;5074689;28;20101;-63
2022/12/12 05:18:59;;;;;;;10.65;1.70;;;15.20;58.10;;;;;;5080200;28;20012;-63
2022/12/12 05:21:26;;;;;;;7.13;1.38;;;15.20;58.20;;;;;;5079037;28;20071;-63
2022/12/12 05:23:52;;;;;;;5.78;1.33;;;15.10;59.20;;;;;;5077885;28;20084;-63
2022/12/12 05:26:25;;;;;;;6.43;1.85;;;15.00;59.50;;;;;;5075913;28;20128;-64
2022/12/12 05:28:52;;;;;;;9.55;3.17;;;14.90;59.30;;;;;;5084071;28;20069;-62
2022/12/12 05:31:18;;;;;;;9.88;2.40;;;14.90;58.90;;;;;;5085310;28;20077;-63
2022/12/12 05:33:45;;;;;;;6.78;2.58;;;14.90;58.80;;;;;;5080133;28;20065;-63
2022/12/12 05:36:12;;;;;;;9.38;2.47;;;14.90;59.20;;;;;;5086710;28;20108;-62
2022/12/12 05:38:40;;;;;;;11.45;2.55;;;14.90;59.60;;;;;;5079413;28;20061;-63
2022/12/12 05:41:07;;;;;;;9.13;2.38;;;14.80;60.10;;;;;;5079695;28;20084;-61
2022/12/12 05:43:34;;;;;;;7.13;1.85;;;14.80;60.90;;;;;;5079408;28;20130;-61
2022/12/12 05:46:01;;;;;;;7.00;2.35;;;14.80;61.10;;;;;;5083349;28;20075;-61
2022/12/12 05:48:27;;;;;;;18.10;2.67;;;14.80;60.80;;;;;;5084620;28;20065;-62
2022/12/12 05:50:54;;;;;;;11.25;2.80;;;14.70;61.10;;;;;;5083363;28;20073;-62
2022/12/12 05:53:21;;;;;;;9.82;2.47;;;14.80;61.80;;;;;;5087085;28;20103;-64
2022/12/12 05:55:51;;;;;;;27.83;13.68;;;14.80;61.40;;;;;;5082616;28;20073;-63
2022/12/12 05:58:19;;;;;;;32.00;21.17;;;14.70;61.30;;;;;;5084084;28;20530;-66
2022/12/12 06:00:49;;;;;;;7.72;1.90;;;14.70;61.60;;;;;;5085469;28;20514;-64
2022/12/12 06:03:16;;;;;;;9.13;2.15;;;14.60;61.90;;;;;;5080451;28;20161;-63
2022/12/12 06:05:43;;;;;;;6.75;2.30;;;14.60;62.60;;;;;;5085021;28;20085;-62
2022/12/12 06:08:09;;;;;;;14.98;2.65;;;14.60;63.20;;;;;;5089864;28;20068;-64
2022/12/12 06:10:35;;;;;;;;;;;14.60;63.80;;;;;;5088379;28;20156;-63
2022/12/12 06:13:02;;;;;;;14.35;3.65;;;14.60;63.90;;;;;;5073585;28;20001;-65
2022/12/12 06:15:29;;;;;;;9.93;3.38;;;14.60;63.90;;;;;;5083564;28;20072;-62
2022/12/12 06:17:57;;;;;;;;;;;14.60;64.10;;;;;;5082383;28;20526;-63
2022/12/12 06:20:24;;;;;;;21.27;2.55;;;14.50;63.50;;;;;;5088881;28;20485;-62
2022/12/12 06:22:50;;;;;;;19.42;2.20;;;14.60;63.00;;;;;;5087063;28;20088;-64
2022/12/12 06:25:16;;;;;;;;;;;14.60;62.50;;;;;;5083687;28;20089;-62
2022/12/12 06:27:42;;;;;;;9.05;2.22;;;14.60;62.20;;;;;;5086012;28;19957;-64
2022/12/12 06:30:09;;;;;;;;;;;14.60;61.00;;;;;;5078544;28;20084;-64
2022/12/12 06:32:35;;;;;;;20.40;2.50;;;14.60;60.80;;;;;;5082348;28;19972;-62
2022/12/12 06:35:01;;;;;;;;;;;14.60;60.60;;;;;;5082672;28;20074;-62
2022/12/12 06:37:28;;;;;;;22.90;2.83;;;14.60;61.20;;;;;;5085812;28;19957;-61
2022/12/12 06:39:54;;;;;;;;;;;14.50;61.70;;;;;;5082843;28;20124;-61
2022/12/12 06:42:20;;;;;;;9.88;2.30;;;14.50;61.40;;;;;;5083611;28;19968;-63
2022/12/12 06:44:46;;;;;;;;;;;14.50;61.10;;;;;;5083060;28;20086;-63
2022/12/12 06:47:12;;;;;;;13.93;2.50;;;14.50;61.10;;;;;;5083303;28;20002;-63
2022/12/12 06:49:38;;;;;;;;;;;14.50;61.70;;;;;;5083444;28;20172;-66
2022/12/12 06:52:05;;;;;;;17.35;2.38;;;14.40;62.30;;;;;;5079400;28;19972;-65
2022/12/12 06:54:31;;;;;;;;;;;14.40;62.70;;;;;;5083067;28;20152;-62
2022/12/12 06:56:57;;;;;;;18.60;1.90;;;14.30;62.80;;;;;;5078753;28;20036;-61
2022/12/12 06:59:23;;;;;;;;;;;14.30;62.40;;;;;;5088654;28;20082;-59
2022/12/12 07:01:50;;;;;;;11.15;1.90;;;14.30;62.60;;;;;;5089670;28;19964;-62
2022/12/12 07:04:16;;;;;;;;;;;14.40;62.50;;;;;;5084044;28;20073;-60
2022/12/12 07:06:42;;;;;;;8.00;1.95;;;14.40;62.30;;;;;;5079753;28;20024;-59
2022/12/12 07:09:08;;;;;;;;;;;14.40;62.00;;;;;;5087810;28;20068;-62
2022/12/12 07:11:35;;;;;;;15.27;2.08;;;14.40;62.40;;;;;;5084124;28;19970;-59
2022/12/12 07:14:04;;;;;;;;;;;14.40;62.40;;;;;;5075324;28;20106;-60
2022/12/12 07:16:30;;;;;;;15.02;2.25;;;14.30;62.60;;;;;;5082930;28;20414;-61
2022/12/12 07:18:57;;;;;;;10.27;1.65;;;14.30;63.10;;;;;;5079783;28;20161;-63
2022/12/12 07:21:23;;;;;;;;;;;14.30;63.50;;;;;;5080408;28;20072;-62
2022/12/12 07:23:49;;;;;;;11.10;1.77;;;14.30;64.10;;;;;;5075361;28;20428;-61
2022/12/12 07:26:19;;;;;;;5.93;1.40;;;14.20;64.20;;;;;;5076243;28;20076;-59
2022/12/12 07:28:46;;;;;;;5.13;1.58;;;14.10;64.40;;;;;;5079012;28;20147;-61
2022/12/12 07:31:15;;;;;;;6.13;1.42;;;14.00;65.10;;;;;;5077966;28;20069;-60
2022/12/12 07:33:42;;;;;;;5.18;1.35;;;14.00;65.40;;;;;;5082018;28;20073;-62
2022/12/12 07:36:09;;;;;;;9.00;1.40;;;13.90;65.80;;;;;;5077915;28;20073;-61
2022/12/12 07:38:35;;;;;;;7.80;1.77;;;13.90;66.20;;;;;;5082893;28;20072;-64
2022/12/12 07:41:04;;;;;;;6.03;1.38;;;13.90;67.10;;;;;;5078770;28;20143;-62
2022/12/12 07:43:30;;;;;;;5.47;1.08;;;13.80;68.50;;;;;;5079006;28;20072;-60
2022/12/12 07:45:56;;;;;;;;;;;13.70;68.90;;;;;;5082780;28;20477;-62
2022/12/12 07:48:22;;;;;;;6.95;1.30;;;13.70;69.10;;;;;;5081728;28;19957;-61
2022/12/12 07:50:49;;;;;;;;;;;13.60;69.30;;;;;;5078950;28;20100;-62
2022/12/12 07:53:15;;;;;;;14.18;1.77;;;14.10;90.10;;;;;;5071193;28;19964;-62
2022/12/12 07:55:41;;;;;;;;;;;13.50;70.30;;;;;;5084879;28;20521;-60
2022/12/12 07:58:07;;;;;;;10.90;1.65;;;13.30;92.50;;;;;;5086199;28;20010;-60
2022/12/12 08:00:33;;;;;;;;;;;13.40;70.60;;;;;;5076036;28;20529;-61
2022/12/12 08:03:00;;;;;;;7.78;1.42;;;13.40;93.00;;;;;;5079763;28;20440;-62
2022/12/12 08:05:27;;;;;;;10.63;1.45;;;13.60;92.80;;;;;;5087562;28;20095;-61
2022/12/12 08:07:54;;;;;;;8.13;1.45;;;13.30;91.20;;;;;;5086745;28;20103;-63
2022/12/12 08:10:20;;;;;;;;;;;13.40;69.50;;;;;;5081947;28;20096;-60
2022/12/12 08:12:46;;;;;;;8.02;1.40;;;13.40;69.20;;;;;;5074790;28;19964;-61
2022/12/12 08:15:14;;;;;;;;;;;13.40;68.80;;;;;;5082178;28;20163;-61
2022/12/12 08:17:41;;;;;;;9.10;1.90;;;13.70;90.40;;;;;;5072075;28;19964;-60
2022/12/12 08:20:09;;;;;;;10.85;1.90;;;13.40;91.70;;;;;;5073875;28;20161;-61
2022/12/12 08:22:35;;;;;;;5.47;1.58;;;13.00;90.40;;;;;;5085668;28;20061;-61
2022/12/12 08:25:02;;;;;;;8.65;1.73;;;13.50;90.00;;;;;;5085852;28;20463;-61
2022/12/12 08:27:29;;;;;;;;;;;13.40;66.30;;;;;;5082375;28;20137;-62
2022/12/12 08:29:56;;;;;;;7.25;1.90;;;13.40;64.80;;;;;;5073206;28;19964;-62
2022/12/12 08:32:22;;;;;;;9.98;1.63;;;13.40;64.20;;;;;;5082324;28;20080;-60
2022/12/12 08:34:48;;;;;;;7.20;1.55;;;;;;;;;;5072420;28;20080;-63
2022/12/12 08:37:15;;;;;;;7.43;1.55;;;13.40;87.20;;;;;;5083941;28;20072;-62
2022/12/12 08:39:41;;;;;;;5.18;1.42;;;13.70;83.90;;;;;;5078419;28;20077;-62
2022/12/12 08:42:07;;;;;;;;;;;13.50;63.60;;;;;;5084252;28;20104;-62
2022/12/12 08:44:34;;;;;;;4.57;1.08;;;13.40;63.50;;;;;;5077933;28;19961;-60
2022/12/12 08:47:00;;;;;;;;;;;13.40;63.60;;;;;;5087963;28;20601;-62
2022/12/12 08:49:26;;;;;;;8.32;1.65;;;13.40;63.80;;;;;;5089187;28;19956;-61
2022/12/12 08:51:52;;;;;;;;;;;13.40;64.10;;;;;;5074729;28;20120;-62
2022/12/12 08:54:19;;;;;;;12.10;1.42;;;;;;;;;;5082059;28;20055;-59
2022/12/12 08:56:45;;;;;;;13.43;1.35;;;13.50;63.90;;;;;;5085516;28;20155;-61
2022/12/12 08:59:12;;;;;;;;;;;13.50;64.60;;;;;;5082138;28;20488;-60
2022/12/12 09:01:39;;;;;;;9.10;1.23;;;13.50;65.80;;;;;;5080448;28;19964;-62
2022/12/12 09:04:06;;;;;;;6.82;1.67;;;13.50;65.20;;;;;;5083408;28;20122;-62
2022/12/12 09:06:32;;;;;;;5.90;1.70;;;13.50;64.80;;;;;;5088612;28;20068;-62
2022/12/12 09:08:58;;;;;;;;;;;13.50;65.40;;;;;;5086394;28;20122;-61
2022/12/12 09:11:25;;;;;;;5.68;1.45;;;13.50;65.20;;;;;;5085122;28;20003;-60
2022/12/12 09:13:52;;;;;;;8.05;1.30;;;13.40;65.10;;;;;;5082191;28;20104;-60
2022/12/12 09:16:20;;;;;;;6.97;1.27;;;13.40;65.60;;;;;;5085002;28;20064;-61
2022/12/12 09:18:46;;;;;;;6.43;1.33;;;13.40;66.20;;;;;;5078941;28;20131;-61
2022/12/12 09:21:13;;;;;;;;;;;13.30;66.10;;;;;;5086876;28;20130;-62
2022/12/12 09:23:39;;;;;;;8.00;1.60;;;13.30;66.40;;;;;;5083868;28;20410;-63
2022/12/12 09:26:06;;;;;;;;;;;13.30;66.30;;;;;;5086149;28;20121;-61
2022/12/12 09:28:34;;;;;;;5.90;1.20;;;13.20;66.10;;;;;;5082271;28;19957;-61
2022/12/12 09:31:02;;;;;;;5.47;1.90;;;13.10;66.50;;;;;;5079464;28;20460;-62
2022/12/12 09:33:28;;;;;;;9.02;1.33;;;13.10;65.70;;;;;;5079237;28;20131;-63
2022/12/12 09:35:59;;;;;;;;;;;13.20;64.80;;;;;;5080560;28;20429;-62
2022/12/12 09:38:26;;;;;;;9.93;1.58;;;13.20;64.10;;;;;;5083468;28;19980;-61
2022/12/12 09:40:55;;;;;;;6.72;1.75;;;13.30;63.30;;;;;;5082042;28;20454;-62
2022/12/12 09:43:27;;;;;;;9.02;1.35;;;13.30;62.90;;;;;;5082366;28;20179;-62
2022/12/12 09:45:54;;;;;;;9.18;1.65;;;13.50;89.10;;;;;;5085429;28;20576;-61
2022/12/12 09:48:35;;;;;;;8.38;1.23;;;13.30;90.80;;;;;;5084460;28;20962;-62
2022/12/12 09:51:02;;;;;;;7.25;1.25;;;13.30;90.30;;;;;;5084311;28;20087;-63
2022/12/12 09:53:28;;;;;;;12.98;1.50;;;;;;;;;;5090444;28;20063;-63
2022/12/12 09:56:27;;;;;;;6.05;0.93;;;12.90;92.70;;;;;;5081688;28;20072;-62
2022/12/12 09:59:06;;;;;;;4.65;1.10;;;13.30;92.30;;;;;;5083575;28;20441;-61
2022/12/12 10:01:50;;;;;;;9.55;1.40;;;13.10;66.40;;;;;;5081162;28;20078;-62
2022/12/12 10:04:42;;;;;;;16.02;7.57;;;13.00;66.30;;;;;;5077966;28;20530;-61
2022/12/12 10:07:27;;;;;;;9.45;1.45;;;13.00;66.40;;;;;;5077493;28;20077;-62
2022/12/12 10:10:11;;;;;;;7.40;1.23;;;13.00;90.90;;;;;;5082012;28;20093;-64
2022/12/12 10:12:41;;;;;;;10.30;1.48;;;13.20;89.60;;;;;;5085464;28;20162;-61
2022/12/12 10:15:22;;;;;;;7.25;1.40;;;13.00;84.00;;;;;;5077548;28;20554;-61
2022/12/12 10:17:49;;;;;;;8.35;1.13;;;12.80;90.30;;;;;;5082686;28;20545;-62
2022/12/12 10:20:26;;;;;;;8.63;1.02;;;12.80;74.30;;;;;;5081276;28;20487;-60
2022/12/12 10:22:58;;;;;;;5.38;1.00;;;12.80;90.20;;;;;;5081817;28;20065;-62
2022/12/12 10:25:40;;;;;;;4.18;0.98;;;13.00;78.00;;;;;;5080603;28;20073;-61
2022/12/12 10:28:16;;;;;;;8.77;1.13;;;13.00;62.90;;;;;;5081679;28;20118;-61
2022/12/12 10:31:14;;;;;;;4.70;0.88;;;13.10;89.30;;;;;;5079244;28;20471;-60
2022/12/12 10:34:00;;;;;;;4.00;1.00;;;12.80;89.60;;;;;;5040388;28;20105;-61
2022/12/12 10:36:40;;;;;;;3.78;1.30;;;13.20;64.50;;;;;;5041252;28;20177;-62
2022/12/12 10:39:13;;;;;;;3.83;0.90;;;12.80;90.20;;;;;;5039544;28;20085;-62
2022/12/12 10:41:57;;;;;;;8.52;1.33;;;13.00;90.40;;;;;;5035062;28;20070;-60
2022/12/12 10:44:50;;;;;;;3.47;1.00;;;12.80;90.70;;;;;;5034219;28;20160;-62
2022/12/12 10:47:16;;;;;;;5.43;1.13;;;13.10;90.90;;;;;;5038546;28;20188;-60
2022/12/12 10:49:43;;;;;;;6.75;1.63;;;12.60;90.70;;;;;;5036703;28;20086;-62
2022/12/12 10:52:27;;;;;;;;;;;12.80;65.20;;;;;;5036257;28;20105;-61
2022/12/12 10:54:59;;;;;;;4.90;1.33;;;12.60;90.80;;;;;;5039521;28;19957;-61
2022/12/12 10:57:27;;;;;;;4.38;0.90;;;12.70;91.20;;;;;;5034917;28;20091;-63
2022/12/12 10:59:57;;;;;;;4.78;0.82;;;12.70;91.10;;;;;;5039634;28;20132;-63
2022/12/12 11:02:37;;;;;;;6.53;1.50;;;12.70;73.30;;;;;;5042526;28;20082;-63
2022/12/12 11:05:16;;;;;;;4.30;1.00;;;12.40;91.30;;;;;;5037860;28;20090;-63
2022/12/12 11:07:46;;;;;;;6.30;1.23;;;12.60;65.40;;;;;;5038970;28;20100;-63
2022/12/12 11:10:25;;;;;;;3.50;1.20;;;12.70;90.70;;;;;;5076772;28;20091;-62
2022/12/12 11:13:00;;;;;;;6.70;1.30;;;12.50;91.00;;;;;;5081495;28;20133;-63
2022/12/12 11:15:37;;;;;;;3.63;1.27;;;12.60;65.50;;;;;;5075904;28;20079;-62
2022/12/12 11:18:05;;;;;;;3.15;1.00;;;12.50;91.40;;;;;;5083742;28;20072;-63
2022/12/12 11:20:31;;;;;;;5.53;1.15;;;12.20;78.70;;;;;;5074000;28;20104;-62
2022/12/12 11:22:57;;;;;;;;;;;12.50;65.60;;;;;;5080163;28;20204;-63
2022/12/12 11:25:30;;;;;;;7.00;1.13;;;13.00;90.50;;;;;;5074197;28;20018;-63
2022/12/12 11:28:02;;;;;;;4.18;1.20;;;12.60;89.40;;;;;;5077944;28;20553;-62
2022/12/12 11:30:29;;;;;;;22.05;1.70;;;12.90;88.30;;;;;;5077642;28;20065;-61
2022/12/12 11:32:56;;;;;;;16.08;1.63;;;12.80;62.80;;;;;;5085035;28;20120;-63
2022/12/12 11:35:33;;;;;;;11.90;1.75;;;12.90;62.40;;;;;;5081680;28;20118;-63
2022/12/12 11:38:37;;;;;;;11.27;1.55;;;12.90;63.20;;;;;;5074780;28;20100;-62
2022/12/12 11:41:07;;;;;;;12.10;1.50;;;12.80;63.40;;;;;;5046563;28;20119;-63
2022/12/12 11:43:51;;;;;;;7.57;1.70;;;12.70;63.20;;;;;;5037263;28;20100;-63
2022/12/12 11:46:23;;;;;;;11.93;1.55;;;12.80;63.10;;;;;;5038587;28;20547;-62
2022/12/12 11:48:52;;;;;;;5.97;1.00;;;12.80;63.30;;;;;;5038487;28;20113;-63
2022/12/12 11:51:39;;;;;;;10.38;1.45;;;12.70;63.50;;;;;;5041511;28;20218;-62
2022/12/12 11:54:11;;;;;;;;;;;12.70;63.70;;;;;;5035491;28;20089;-62
2022/12/12 11:57:12;;;;;;;4.25;0.85;;;12.60;64.10;;;;;;5036513;28;19984;-60
2022/12/12 12:00:06;;;;;;;5.53;1.23;;;12.50;64.20;;;;;;5036310;28;20093;-61
2022/12/12 12:03:09;;;;;;;8.13;1.30;;;12.50;64.60;;;;;;5039271;28;20077;-62
2022/12/12 12:05:43;;;;;;;8.45;1.20;;;12.40;64.80;;;;;;5038196;28;20117;-63
2022/12/12 12:08:24;;;;;;;18.45;1.67;;;12.40;65.30;;;;;;5036753;28;20074;-61
2022/12/12 12:10:56;;;;;;;11.43;1.58;;;12.40;65.50;;;;;;5040891;28;20497;-62
2022/12/12 12:13:28;;;;;;;7.40;1.45;;;12.30;65.60;;;;;;5040697;28;20493;-63
2022/12/12 12:16:17;;;;;;;12.98;1.60;;;12.30;65.90;;;;;;5039494;28;20085;-63
2022/12/12 12:19:09;;;;;;;5.95;1.25;;;12.20;66.20;;;;;;5080780;28;20073;-62
2022/12/12 12:21:56;;;;;;;9.55;1.35;;;12.20;66.80;;;;;;5074627;28;20503;-60
2022/12/12 12:24:40;;;;;;;5.88;1.13;;;12.10;66.60;;;;;;5084622;28;20068;-62
2022/12/12 12:27:09;;;;;;;3.67;1.20;;;12.10;66.20;;;;;;5078713;28;20090;-61
2022/12/12 12:29:51;;;;;;;5.28;1.05;;;12.10;66.10;;;;;;5081322;28;20084;-62
2022/12/12 12:32:18;;;;;;;5.70;1.02;;;12.10;65.70;;;;;;5082921;28;20100;-61
2022/12/12 12:35:02;;;;;;;7.60;1.45;;;12.10;65.70;;;;;;5084715;28;20077;-62
2022/12/12 12:37:41;;;;;;;3.15;0.80;;;12.10;65.60;;;;;;5082280;28;20084;-62
2022/12/12 12:40:31;;;;;;;5.57;1.00;;;11.70;89.00;;;;;;5081651;28;20081;-62
2022/12/12 12:43:16;;;;;;;4.78;0.93;;;12.20;88.70;;;;;;5082083;28;20179;-62
2022/12/12 12:45:56;;;;;;;4.57;1.23;;;12.10;90.70;;;;;;5081342;28;20077;-61
2022/12/12 12:48:37;;;;;;;3.92;1.00;;;12.00;90.40;;;;;;5084318;28;20064;-61
2022/12/12 12:51:31;;;;;;;5.15;0.93;;;12.10;65.70;;;;;;5082844;28;20076;-62
2022/12/12 12:54:19;;;;;;;6.93;1.20;;;12.10;65.90;;;;;;5079522;28;20529;-61
2022/12/12 12:56:53;;;;;;;4.20;1.00;;;12.10;66.60;;;;;;5082426;28;20581;-62
2022/12/12 12:59:26;;;;;;;5.93;0.95;;;12.40;71.00;;;;;;5088521;28;21693;-60
2022/12/12 13:01:54;;;;;;;5.03;1.15;;;11.90;72.00;;;;;;5080900;28;20464;-60
2022/12/12 13:04:26;;;;;;;4.20;1.13;;;11.50;92.30;;;;;;5085968;28;20545;-62
2022/12/12 13:07:03;;;;;;;4.32;1.30;;;11.90;68.20;;;;;;5081916;28;20069;-59
2022/12/12 13:09:43;;;;;;;5.03;1.17;;;11.90;68.50;;;;;;5084535;28;20467;-62
2022/12/12 13:12:42;;;;;;;7.53;1.38;;;11.80;68.80;;;;;;5083066;28;20100;-61
2022/12/12 13:15:28;;;;;;;10.05;1.25;;;11.70;69.10;;;;;;5081160;28;20099;-63
2022/12/12 13:18:03;;;;;;;7.45;1.17;;;11.60;69.50;;;;;;5078689;28;20468;-61
2022/12/12 13:20:33;;;;;;;5.20;1.20;;;11.70;69.60;;;;;;5083134;28;20154;-62
2022/12/12 13:23:03;;;;;;;5.60;1.00;;;11.60;69.90;;;;;;5083419;28;20100;-62
2022/12/12 13:25:40;;;;;;;9.98;1.23;;;11.60;70.10;;;;;;5081350;28;20069;-61
2022/12/12 13:28:18;;;;;;;5.78;1.10;;;11.80;95.50;;;;;;5080495;28;20153;-63